sensor_id;sensor_type;location;lat;lon;timestamp;pressure;altitude;pressure_sealevel;temperature;humidity
62592;BME280;48659;41.622;2.276;2023-01-20T00:01:12;98510.01;;;5.59;52.71
62592;BME280;48659;41.622;2.276;2023-01-20T00:03:40;98523.77;;;5.72;53.00
62592;BME280;48659;41.622;2.276;2023-01-20T00:06:08;98512.36;;;5.79;52.49
62592;BME280;48659;41.622;2.276;2023-01-20T00:08:35;98516.36;;;4.81;54.50
62592;BME280;48659;41.622;2.276;2023-01-20T00:11:04;98518.03;;;5.49;53.68
62592;BME280;48659;41.622;2.276;2023-01-20T00:13:32;98531.89;;;4.64;54.56
62592;BME280;48659;41.622;2.276;2023-01-20T00:16:01;98533.67;;;5.62;52.70
62592;BME280;48659;41.622;2.276;2023-01-20T00:18:28;98548.81;;;5.33;52.56
62592;BME280;48659;41.622;2.276;2023-01-20T00:21:01;98559.48;;;6.14;49.90
62592;BME280;48659;41.622;2.276;2023-01-20T00:23:32;98562.91;;;6.41;49.10
62592;BME280;48659;41.622;2.276;2023-01-20T00:26:03;98576.53;;;5.31;51.50
62592;BME280;48659;41.622;2.276;2023-01-20T00:28:31;98579.79;;;4.36;55.26
62592;BME280;48659;41.622;2.276;2023-01-20T00:31:09;98572.64;;;4.92;53.63
62592;BME280;48659;41.622;2.276;2023-01-20T00:33:37;98570.79;;;6.21;50.78
62592;BME280;48659;41.622;2.276;2023-01-20T00:36:04;98572.60;;;5.16;54.02
62592;BME280;48659;41.622;2.276;2023-01-20T00:38:32;98593.42;;;4.92;53.81
62592;BME280;48659;41.622;2.276;2023-01-20T00:40:59;98588.32;;;4.48;57.41
62592;BME280;48659;41.622;2.276;2023-01-20T00:43:32;98589.58;;;4.10;56.99
62592;BME280;48659;41.622;2.276;2023-01-20T00:45:59;98581.40;;;4.38;58.48
62592;BME280;48659;41.622;2.276;2023-01-20T00:48:27;98580.97;;;4.15;57.92
62592;BME280;48659;41.622;2.276;2023-01-20T00:50:55;98595.95;;;4.40;57.57
62592;BME280;48659;41.622;2.276;2023-01-20T00:53:23;98596.23;;;4.75;55.74
62592;BME280;48659;41.622;2.276;2023-01-20T00:55:51;98603.13;;;4.44;55.59
62592;BME280;48659;41.622;2.276;2023-01-20T00:58:18;98603.40;;;4.71;55.93
62592;BME280;48659;41.622;2.276;2023-01-20T01:00:46;98607.30;;;4.09;56.31
62592;BME280;48659;41.622;2.276;2023-01-20T01:03:14;98611.39;;;4.41;56.54
62592;BME280;48659;41.622;2.276;2023-01-20T01:05:43;98636.33;;;4.19;56.53
62592;BME280;48659;41.622;2.276;2023-01-20T01:08:11;98637.39;;;4.22;58.91
62592;BME280;48659;41.622;2.276;2023-01-20T01:10:39;98647.92;;;3.66;59.15
62592;BME280;48659;41.622;2.276;2023-01-20T01:13:07;98657.55;;;4.34;58.31
62592;BME280;48659;41.622;2.276;2023-01-20T01:15:35;98662.21;;;4.17;58.62
62592;BME280;48659;41.622;2.276;2023-01-20T01:18:02;98666.29;;;4.11;58.41
62592;BME280;48659;41.622;2.276;2023-01-20T01:20:33;98661.21;;;4.03;57.69
62592;BME280;48659;41.622;2.276;2023-01-20T01:23:00;98656.30;;;4.12;56.41
62592;BME280;48659;41.622;2.276;2023-01-20T01:25:27;98663.96;;;3.61;57.48
62592;BME280;48659;41.622;2.276;2023-01-20T01:27:54;98669.11;;;4.25;57.03
62592;BME280;48659;41.622;2.276;2023-01-20T01:30:31;98680.47;;;4.16;56.70
62592;BME280;48659;41.622;2.276;2023-01-20T01:32:59;98698.23;;;3.68;58.84
62592;BME280;48659;41.622;2.276;2023-01-20T01:35:32;98685.49;;;3.89;56.83
62592;BME280;48659;41.622;2.276;2023-01-20T01:37:59;98692.42;;;3.60;59.00
62592;BME280;48659;41.622;2.276;2023-01-20T01:40:32;98698.76;;;4.01;56.48
62592;BME280;48659;41.622;2.276;2023-01-20T01:42:59;98709.10;;;4.58;54.84
62592;BME280;48659;41.622;2.276;2023-01-20T01:45:28;98734.53;;;3.97;57.14
62592;BME280;48659;41.622;2.276;2023-01-20T01:48:01;98742.25;;;4.65;55.86
62592;BME280;48659;41.622;2.276;2023-01-20T01:50:35;98751.41;;;4.33;56.10
62592;BME280;48659;41.622;2.276;2023-01-20T01:53:05;98754.72;;;5.31;54.22
62592;BME280;48659;41.622;2.276;2023-01-20T01:55:35;98767.34;;;5.39;52.58
62592;BME280;48659;41.622;2.276;2023-01-20T02:02:19;98793.20;;;7.51;46.79
62592;BME280;48659;41.622;2.276;2023-01-20T02:04:46;98797.73;;;7.71;45.61
62592;BME280;48659;41.622;2.276;2023-01-20T02:07:15;98803.47;;;8.69;43.85
62592;BME280;48659;41.622;2.276;2023-01-20T02:09:44;98799.89;;;8.63;43.15
62592;BME280;48659;41.622;2.276;2023-01-20T02:12:14;98803.41;;;8.94;42.46
62592;BME280;48659;41.622;2.276;2023-01-20T02:14:46;98804.98;;;9.23;41.88
62592;BME280;48659;41.622;2.276;2023-01-20T02:17:20;98808.89;;;8.93;42.03
62592;BME280;48659;41.622;2.276;2023-01-20T02:20:09;98809.17;;;8.62;42.59
62592;BME280;48659;41.622;2.276;2023-01-20T02:22:46;98819.40;;;7.72;44.43
62592;BME280;48659;41.622;2.276;2023-01-20T02:25:34;98833.94;;;7.07;46.34
62592;BME280;48659;41.622;2.276;2023-01-20T02:28:22;98843.93;;;6.55;47.63
62592;BME280;48659;41.622;2.276;2023-01-20T02:31:21;98853.36;;;7.26;45.87
62592;BME280;48659;41.622;2.276;2023-01-20T02:33:56;98860.64;;;7.46;45.47
62592;BME280;48659;41.622;2.276;2023-01-20T02:36:29;98865.63;;;5.73;48.91
62592;BME280;48659;41.622;2.276;2023-01-20T02:39:03;98873.68;;;5.58;48.61
62592;BME280;48659;41.622;2.276;2023-01-20T02:41:39;98876.92;;;4.83;50.08
62592;BME280;48659;41.622;2.276;2023-01-20T02:44:12;98880.38;;;5.19;51.26
62592;BME280;48659;41.622;2.276;2023-01-20T02:46:49;98894.92;;;4.28;54.52
62592;BME280;48659;41.622;2.276;2023-01-20T02:49:24;98902.84;;;4.06;56.04
62592;BME280;48659;41.622;2.276;2023-01-20T02:51:57;98902.20;;;3.72;56.46
62592;BME280;48659;41.622;2.276;2023-01-20T02:54:28;98907.55;;;3.56;58.21
62592;BME280;48659;41.622;2.276;2023-01-20T02:56:58;98913.91;;;2.95;60.53
62592;BME280;48659;41.622;2.276;2023-01-20T02:59:30;98912.60;;;3.52;59.08
62592;BME280;48659;41.622;2.276;2023-01-20T03:02:01;98909.58;;;3.57;58.35
62592;BME280;48659;41.622;2.276;2023-01-20T03:04:32;98915.00;;;3.26;58.16
62592;BME280;48659;41.622;2.276;2023-01-20T03:07:01;98917.30;;;3.87;57.37
62592;BME280;48659;41.622;2.276;2023-01-20T03:09:36;98917.85;;;3.31;57.54
62592;BME280;48659;41.622;2.276;2023-01-20T03:12:10;98926.18;;;3.99;56.55
62592;BME280;48659;41.622;2.276;2023-01-20T03:14:38;98932.37;;;3.33;57.49
62592;BME280;48659;41.622;2.276;2023-01-20T03:17:06;98938.79;;;2.37;60.01
62592;BME280;48659;41.622;2.276;2023-01-20T03:19:35;98936.31;;;3.44;57.63
62592;BME280;48659;41.622;2.276;2023-01-20T03:22:03;98945.00;;;5.07;54.41
62592;BME280;48659;41.622;2.276;2023-01-20T03:24:32;98940.67;;;5.56;52.20
62592;BME280;48659;41.622;2.276;2023-01-20T03:27:01;98946.40;;;5.98;51.78
62592;BME280;48659;41.622;2.276;2023-01-20T03:29:28;98948.44;;;4.79;52.82
62592;BME280;48659;41.622;2.276;2023-01-20T03:31:58;98958.04;;;5.62;51.05
62592;BME280;48659;41.622;2.276;2023-01-20T03:34:34;98960.46;;;5.19;50.27
62592;BME280;48659;41.622;2.276;2023-01-20T03:37:05;98961.69;;;5.26;51.98
62592;BME280;48659;41.622;2.276;2023-01-20T03:39:34;98967.68;;;6.33;49.65
62592;BME280;48659;41.622;2.276;2023-01-20T03:42:05;98981.23;;;3.42;54.99
62592;BME280;48659;41.622;2.276;2023-01-20T03:44:47;98988.48;;;3.97;55.63
62592;BME280;48659;41.622;2.276;2023-01-20T03:47:21;98992.32;;;3.72;56.62
62592;BME280;48659;41.622;2.276;2023-01-20T03:49:59;98995.30;;;4.68;53.31
62592;BME280;48659;41.622;2.276;2023-01-20T03:52:36;98995.15;;;5.18;51.35
62592;BME280;48659;41.622;2.276;2023-01-20T03:55:13;98999.76;;;5.76;49.74
62592;BME280;48659;41.622;2.276;2023-01-20T03:57:45;99009.07;;;5.08;52.76
62592;BME280;48659;41.622;2.276;2023-01-20T04:00:17;99010.74;;;5.09;53.44
62592;BME280;48659;41.622;2.276;2023-01-20T04:02:46;99015.73;;;3.82;55.87
62592;BME280;48659;41.622;2.276;2023-01-20T04:05:13;99021.02;;;4.59;54.71
62592;BME280;48659;41.622;2.276;2023-01-20T04:07:43;99030.26;;;4.93;51.93
62592;BME280;48659;41.622;2.276;2023-01-20T04:10:15;99033.65;;;4.32;55.12
62592;BME280;48659;41.622;2.276;2023-01-20T04:12:43;99032.73;;;5.26;53.10
62592;BME280;48659;41.622;2.276;2023-01-20T04:15:11;99035.91;;;4.52;54.18
62592;BME280;48659;41.622;2.276;2023-01-20T04:17:39;99045.56;;;2.03;59.62
62592;BME280;48659;41.622;2.276;2023-01-20T04:20:08;99048.26;;;3.58;57.82
62592;BME280;48659;41.622;2.276;2023-01-20T04:22:40;99046.39;;;4.00;56.84
62592;BME280;48659;41.622;2.276;2023-01-20T04:25:13;99049.09;;;3.72;56.06
62592;BME280;48659;41.622;2.276;2023-01-20T04:27:44;99062.63;;;3.16;57.91
62592;BME280;48659;41.622;2.276;2023-01-20T04:30:12;99068.85;;;3.70;56.84
62592;BME280;48659;41.622;2.276;2023-01-20T04:32:40;99072.39;;;3.95;56.67
62592;BME280;48659;41.622;2.276;2023-01-20T04:35:09;99073.64;;;4.15;56.32
62592;BME280;48659;41.622;2.276;2023-01-20T04:37:38;99076.85;;;2.48;58.81
62592;BME280;48659;41.622;2.276;2023-01-20T04:40:07;99083.60;;;2.28;59.74
62592;BME280;48659;41.622;2.276;2023-01-20T04:42:35;99084.27;;;3.81;54.98
62592;BME280;48659;41.622;2.276;2023-01-20T04:45:03;99090.59;;;4.39;53.70
62592;BME280;48659;41.622;2.276;2023-01-20T04:47:31;99090.80;;;2.62;58.36
62592;BME280;48659;41.622;2.276;2023-01-20T04:49:58;99095.37;;;2.18;59.69
62592;BME280;48659;41.622;2.276;2023-01-20T04:52:25;99115.08;;;0.68;63.39
62592;BME280;48659;41.622;2.276;2023-01-20T04:54:53;99117.43;;;1.82;61.83
62592;BME280;48659;41.622;2.276;2023-01-20T04:57:20;99122.28;;;1.77;60.77
62592;BME280;48659;41.622;2.276;2023-01-20T04:59:47;99130.81;;;2.00;59.87
62592;BME280;48659;41.622;2.276;2023-01-20T05:02:15;99135.69;;;1.30;62.43
62592;BME280;48659;41.622;2.276;2023-01-20T05:04:43;99134.49;;;1.98;59.27
62592;BME280;48659;41.622;2.276;2023-01-20T05:07:10;99139.52;;;2.05;58.55
62592;BME280;48659;41.622;2.276;2023-01-20T05:09:38;99147.12;;;3.93;53.59
62592;BME280;48659;41.622;2.276;2023-01-20T05:12:05;99153.87;;;4.25;52.95
62592;BME280;48659;41.622;2.276;2023-01-20T05:14:33;99154.09;;;4.52;51.58
62592;BME280;48659;41.622;2.276;2023-01-20T05:17:00;99171.51;;;2.71;54.30
62592;BME280;48659;41.622;2.276;2023-01-20T05:19:27;99182.76;;;3.34;54.34
62592;BME280;48659;41.622;2.276;2023-01-20T05:21:54;99188.02;;;3.61;52.77
62592;BME280;48659;41.622;2.276;2023-01-20T05:24:24;99195.94;;;3.71;52.08
62592;BME280;48659;41.622;2.276;2023-01-20T05:26:51;99194.53;;;3.77;52.67
62592;BME280;48659;41.622;2.276;2023-01-20T05:29:18;99207.49;;;1.15;57.54
62592;BME280;48659;41.622;2.276;2023-01-20T05:31:45;99213.56;;;0.89;59.48
62592;BME280;48659;41.622;2.276;2023-01-20T05:34:12;99218.84;;;0.54;60.77
62592;BME280;48659;41.622;2.276;2023-01-20T05:36:40;99223.28;;;2.15;57.06
62592;BME280;48659;41.622;2.276;2023-01-20T05:39:07;99234.76;;;2.52;56.55
62592;BME280;48659;41.622;2.276;2023-01-20T05:41:34;99244.66;;;2.73;55.75
62592;BME280;48659;41.622;2.276;2023-01-20T05:44:01;99249.07;;;1.27;59.84
62592;BME280;48659;41.622;2.276;2023-01-20T05:46:29;99260.73;;;0.83;60.35
62592;BME280;48659;41.622;2.276;2023-01-20T05:48:57;99261.15;;;0.54;60.74
62592;BME280;48659;41.622;2.276;2023-01-20T05:51:25;99270.35;;;2.36;56.78
62592;BME280;48659;41.622;2.276;2023-01-20T05:53:53;99270.88;;;3.38;53.62
62592;BME280;48659;41.622;2.276;2023-01-20T05:56:20;99279.32;;;2.65;54.71
62592;BME280;48659;41.622;2.276;2023-01-20T05:58:47;99297.67;;;2.12;55.47
62592;BME280;48659;41.622;2.276;2023-01-20T06:01:15;99299.47;;;3.02;52.88
62592;BME280;48659;41.622;2.276;2023-01-20T06:03:45;99301.01;;;3.40;53.33
62592;BME280;48659;41.622;2.276;2023-01-20T06:06:13;99307.97;;;4.40;50.40
62592;BME280;48659;41.622;2.276;2023-01-20T06:08:40;99313.66;;;3.69;50.90
62592;BME280;48659;41.622;2.276;2023-01-20T06:11:08;99326.44;;;4.83;49.23
62592;BME280;48659;41.622;2.276;2023-01-20T06:13:36;99337.03;;;2.40;53.81
62592;BME280;48659;41.622;2.276;2023-01-20T06:16:04;99346.80;;;2.60;54.65
62592;BME280;48659;41.622;2.276;2023-01-20T06:18:32;99349.27;;;0.77;58.27
62592;BME280;48659;41.622;2.276;2023-01-20T06:21:01;99363.05;;;-0.01;60.84
62592;BME280;48659;41.622;2.276;2023-01-20T06:23:28;99362.52;;;0.83;58.79
62592;BME280;48659;41.622;2.276;2023-01-20T06:25:58;99370.39;;;0.39;59.93
62592;BME280;48659;41.622;2.276;2023-01-20T06:28:32;99377.77;;;-0.50;61.16
62592;BME280;48659;41.622;2.276;2023-01-20T06:31:01;99386.96;;;0.31;61.27
62592;BME280;48659;41.622;2.276;2023-01-20T06:33:33;99386.69;;;0.83;58.97
62592;BME280;48659;41.622;2.276;2023-01-20T06:36:00;99395.78;;;-0.66;64.47
62592;BME280;48659;41.622;2.276;2023-01-20T06:38:30;99402.17;;;-0.52;64.11
62592;BME280;48659;41.622;2.276;2023-01-20T06:40:58;99413.95;;;1.11;61.62
62592;BME280;48659;41.622;2.276;2023-01-20T06:43:32;99414.80;;;1.07;59.54
62592;BME280;48659;41.622;2.276;2023-01-20T06:46:00;99425.11;;;1.80;57.42
62592;BME280;48659;41.622;2.276;2023-01-20T06:48:29;99429.56;;;1.19;60.55
62592;BME280;48659;41.622;2.276;2023-01-20T06:51:00;99438.57;;;2.39;56.75
62592;BME280;48659;41.622;2.276;2023-01-20T06:53:33;99452.75;;;1.40;57.71
62592;BME280;48659;41.622;2.276;2023-01-20T06:56:02;99455.53;;;1.79;57.76
62592;BME280;48659;41.622;2.276;2023-01-20T06:58:31;99467.89;;;0.05;61.62
62592;BME280;48659;41.622;2.276;2023-01-20T07:01:05;99467.70;;;1.00;59.67
62592;BME280;48659;41.622;2.276;2023-01-20T07:03:32;99467.89;;;0.87;58.44
62592;BME280;48659;41.622;2.276;2023-01-20T07:06:01;99470.60;;;2.49;55.97
62592;BME280;48659;41.622;2.276;2023-01-20T07:08:30;99475.22;;;2.14;56.17
62592;BME280;48659;41.622;2.276;2023-01-20T07:10:57;99485.45;;;2.54;57.44
62592;BME280;48659;41.622;2.276;2023-01-20T07:13:25;99490.99;;;3.50;53.87
62592;BME280;48659;41.622;2.276;2023-01-20T07:15:53;99495.27;;;2.61;55.44
62592;BME280;48659;41.622;2.276;2023-01-20T07:18:20;99504.96;;;1.68;57.28
62592;BME280;48659;41.622;2.276;2023-01-20T07:20:52;99507.10;;;2.47;56.95
62592;BME280;48659;41.622;2.276;2023-01-20T07:23:20;99514.53;;;2.76;55.57
62592;BME280;48659;41.622;2.276;2023-01-20T07:25:55;99527.77;;;1.44;57.64
62592;BME280;48659;41.622;2.276;2023-01-20T07:28:22;99527.14;;;3.72;53.67
62592;BME280;48659;41.622;2.276;2023-01-20T07:30:50;99534.56;;;0.14;59.91
62592;BME280;48659;41.622;2.276;2023-01-20T07:33:18;99546.41;;;-0.03;62.11
62592;BME280;48659;41.622;2.276;2023-01-20T07:35:51;99547.45;;;1.07;60.52
62592;BME280;48659;41.622;2.276;2023-01-20T07:38:19;99557.23;;;1.84;58.45
62592;BME280;48659;41.622;2.276;2023-01-20T07:40:46;99567.04;;;0.88;60.03
62592;BME280;48659;41.622;2.276;2023-01-20T07:43:15;99567.53;;;1.76;56.77
62592;BME280;48659;41.622;2.276;2023-01-20T07:45:42;99570.05;;;2.49;56.17
62592;BME280;48659;41.622;2.276;2023-01-20T07:48:09;99580.65;;;2.91;55.95
62592;BME280;48659;41.622;2.276;2023-01-20T07:50:37;99590.17;;;2.59;56.07
62592;BME280;48659;41.622;2.276;2023-01-20T07:53:04;99592.66;;;2.49;56.45
62592;BME280;48659;41.622;2.276;2023-01-20T07:55:32;99595.83;;;2.95;54.67
62592;BME280;48659;41.622;2.276;2023-01-20T07:57:59;99604.08;;;3.96;53.11
62592;BME280;48659;41.622;2.276;2023-01-20T08:00:27;99614.00;;;1.88;55.90
62592;BME280;48659;41.622;2.276;2023-01-20T08:02:55;99617.98;;;4.16;51.60
62592;BME280;48659;41.622;2.276;2023-01-20T08:05:22;99625.89;;;4.54;50.99
62592;BME280;48659;41.622;2.276;2023-01-20T08:07:50;99630.56;;;3.87;51.79
62592;BME280;48659;41.622;2.276;2023-01-20T08:10:18;99630.85;;;3.09;54.66
62592;BME280;48659;41.622;2.276;2023-01-20T08:12:46;99630.91;;;4.64;49.76
62592;BME280;48659;41.622;2.276;2023-01-20T08:15:14;99633.17;;;5.97;47.39
62592;BME280;48659;41.622;2.276;2023-01-20T08:17:41;99639.13;;;5.77;47.09
62592;BME280;48659;41.622;2.276;2023-01-20T08:20:10;99640.79;;;4.50;49.52
62592;BME280;48659;41.622;2.276;2023-01-20T08:22:37;99628.53;;;5.06;47.87
62592;BME280;48659;41.622;2.276;2023-01-20T08:25:06;99653.59;;;4.60;50.06
62592;BME280;48659;41.622;2.276;2023-01-20T08:27:34;99657.00;;;4.38;50.45
62592;BME280;48659;41.622;2.276;2023-01-20T08:30:03;99641.25;;;5.08;49.95
62592;BME280;48659;41.622;2.276;2023-01-20T08:32:31;99656.23;;;3.47;53.97
62592;BME280;48659;41.622;2.276;2023-01-20T08:34:58;99655.92;;;4.27;52.63
62592;BME280;48659;41.622;2.276;2023-01-20T08:37:26;99650.33;;;4.26;52.11
62592;BME280;48659;41.622;2.276;2023-01-20T08:39:53;99668.90;;;4.77;51.82
62592;BME280;48659;41.622;2.276;2023-01-20T08:42:20;99661.67;;;5.42;48.29
62592;BME280;48659;41.622;2.276;2023-01-20T08:44:50;99653.72;;;5.74;47.61
62592;BME280;48659;41.622;2.276;2023-01-20T08:47:18;99645.08;;;5.27;47.38
62592;BME280;48659;41.622;2.276;2023-01-20T08:49:45;99660.91;;;4.15;50.31
62592;BME280;48659;41.622;2.276;2023-01-20T08:52:13;99666.70;;;5.00;49.15
62592;BME280;48659;41.622;2.276;2023-01-20T08:54:40;99664.20;;;6.62;44.89
62592;BME280;48659;41.622;2.276;2023-01-20T08:57:08;99660.77;;;7.45;42.96
62592;BME280;48659;41.622;2.276;2023-01-20T08:59:35;99664.35;;;7.77;42.22
62592;BME280;48659;41.622;2.276;2023-01-20T09:02:03;99666.89;;;8.01;41.41
62592;BME280;48659;41.622;2.276;2023-01-20T09:04:30;99670.53;;;8.10;41.73
62592;BME280;48659;41.622;2.276;2023-01-20T09:06:57;99677.50;;;8.35;42.33
62592;BME280;48659;41.622;2.276;2023-01-20T09:09:24;99687.61;;;8.81;41.76
62592;BME280;48659;41.622;2.276;2023-01-20T09:11:52;99684.06;;;8.89;42.30
62592;BME280;48659;41.622;2.276;2023-01-20T09:14:22;99683.47;;;8.86;42.20
62592;BME280;48659;41.622;2.276;2023-01-20T09:16:50;99680.20;;;9.02;41.51
62592;BME280;48659;41.622;2.276;2023-01-20T09:19:17;99673.42;;;9.18;42.69
62592;BME280;48659;41.622;2.276;2023-01-20T09:21:44;99681.52;;;7.63;44.26
62592;BME280;48659;41.622;2.276;2023-01-20T09:24:13;99686.24;;;7.43;48.57
62592;BME280;48659;41.622;2.276;2023-01-20T09:26:40;99678.41;;;7.81;45.09
62592;BME280;48659;41.622;2.276;2023-01-20T09:29:09;99681.16;;;8.17;43.94
62592;BME280;48659;41.622;2.276;2023-01-20T09:31:38;99677.35;;;7.89;43.43
62592;BME280;48659;41.622;2.276;2023-01-20T09:34:05;99681.88;;;8.47;38.56
62592;BME280;48659;41.622;2.276;2023-01-20T09:36:33;99684.54;;;8.20;32.51
62592;BME280;48659;41.622;2.276;2023-01-20T09:39:00;99685.33;;;9.21;35.73
62592;BME280;48659;41.622;2.276;2023-01-20T09:41:30;99679.21;;;9.20;31.99
62592;BME280;48659;41.622;2.276;2023-01-20T09:44:04;99679.55;;;9.01;28.93
62592;BME280;48659;41.622;2.276;2023-01-20T09:46:46;99685.00;;;8.94;28.50
62592;BME280;48659;41.622;2.276;2023-01-20T09:49:22;99679.81;;;10.15;27.22
62592;BME280;48659;41.622;2.276;2023-01-20T09:51:59;99687.43;;;9.93;31.35
62592;BME280;48659;41.622;2.276;2023-01-20T09:54:33;99698.01;;;9.95;35.59
62592;BME280;48659;41.622;2.276;2023-01-20T09:57:05;99705.29;;;10.11;38.03
62592;BME280;48659;41.622;2.276;2023-01-20T09:59:37;99712.04;;;9.72;37.73
62592;BME280;48659;41.622;2.276;2023-01-20T10:02:11;99720.73;;;10.51;40.51
62592;BME280;48659;41.622;2.276;2023-01-20T10:04:44;99719.74;;;10.26;39.88
62592;BME280;48659;41.622;2.276;2023-01-20T10:07:20;99726.70;;;9.92;41.39
62592;BME280;48659;41.622;2.276;2023-01-20T10:09:54;99734.97;;;9.69;41.09
62592;BME280;48659;41.622;2.276;2023-01-20T10:12:29;99747.80;;;9.56;41.76
62592;BME280;48659;41.622;2.276;2023-01-20T10:15:04;99744.99;;;9.95;40.04
62592;BME280;48659;41.622;2.276;2023-01-20T10:17:38;99748.13;;;8.00;42.77
62592;BME280;48659;41.622;2.276;2023-01-20T10:20:14;99754.25;;;9.41;42.08
62592;BME280;48659;41.622;2.276;2023-01-20T10:22:48;99751.22;;;9.68;41.07
62592;BME280;48659;41.622;2.276;2023-01-20T10:25:21;99747.43;;;9.25;42.16
62592;BME280;48659;41.622;2.276;2023-01-20T10:27:53;99755.51;;;9.99;41.18
62592;BME280;48659;41.622;2.276;2023-01-20T10:30:28;99746.74;;;10.14;39.89
62592;BME280;48659;41.622;2.276;2023-01-20T10:33:00;99740.13;;;10.67;38.74
62592;BME280;48659;41.622;2.276;2023-01-20T10:35:32;99737.47;;;10.34;38.91
62592;BME280;48659;41.622;2.276;2023-01-20T10:38:06;99741.05;;;10.31;38.19
62592;BME280;48659;41.622;2.276;2023-01-20T10:40:40;99757.24;;;10.43;39.65
62592;BME280;48659;41.622;2.276;2023-01-20T10:43:11;99761.35;;;8.89;41.59
62592;BME280;48659;41.622;2.276;2023-01-20T10:45:52;99755.13;;;9.77;38.72
62592;BME280;48659;41.622;2.276;2023-01-20T10:48:32;99750.26;;;10.81;37.46
62592;BME280;48659;41.622;2.276;2023-01-20T10:51:12;99758.19;;;10.08;38.56
62592;BME280;48659;41.622;2.276;2023-01-20T10:53:50;99748.40;;;10.70;38.40
62592;BME280;48659;41.622;2.276;2023-01-20T10:56:33;99754.79;;;11.05;36.30
62592;BME280;48659;41.622;2.276;2023-01-20T10:59:05;99749.90;;;9.94;37.16
62592;BME280;48659;41.622;2.276;2023-01-20T11:01:35;99750.69;;;11.58;35.53
62592;BME280;48659;41.622;2.276;2023-01-20T11:04:02;99743.85;;;11.91;33.52
62592;BME280;48659;41.622;2.276;2023-01-20T11:06:30;99744.57;;;11.87;33.18
62592;BME280;48659;41.622;2.276;2023-01-20T11:09:16;99745.14;;;11.66;34.10
62592;BME280;48659;41.622;2.276;2023-01-20T11:11:47;99745.79;;;10.79;34.41
62592;BME280;48659;41.622;2.276;2023-01-20T11:14:14;99741.36;;;11.61;34.91
62592;BME280;48659;41.622;2.276;2023-01-20T11:16:42;99739.86;;;10.72;34.43
62592;BME280;48659;41.622;2.276;2023-01-20T11:19:10;99742.01;;;11.59;34.51
62592;BME280;48659;41.622;2.276;2023-01-20T11:21:37;99738.90;;;9.97;36.25
62592;BME280;48659;41.622;2.276;2023-01-20T11:24:28;99738.88;;;11.27;38.47
62592;BME280;48659;41.622;2.276;2023-01-20T11:27:03;99733.14;;;10.72;35.65
62592;BME280;48659;41.622;2.276;2023-01-20T11:29:37;99738.46;;;9.46;37.57
62592;BME280;48659;41.622;2.276;2023-01-20T11:32:23;99731.14;;;10.91;38.00
62592;BME280;48659;41.622;2.276;2023-01-20T11:34:53;99735.71;;;10.94;38.44
62592;BME280;48659;41.622;2.276;2023-01-20T11:37:22;99736.67;;;9.41;37.30
62592;BME280;48659;41.622;2.276;2023-01-20T11:39:59;99732.43;;;10.34;34.82
62592;BME280;48659;41.622;2.276;2023-01-20T11:42:27;99727.41;;;10.46;35.37
62592;BME280;48659;41.622;2.276;2023-01-20T11:44:56;99731.70;;;10.57;34.81
62592;BME280;48659;41.622;2.276;2023-01-20T11:47:27;99725.31;;;11.82;34.99
62592;BME280;48659;41.622;2.276;2023-01-20T11:50:30;99717.86;;;11.59;36.92
62592;BME280;48659;41.622;2.276;2023-01-20T11:53:19;99729.09;;;10.87;39.07
62592;BME280;48659;41.622;2.276;2023-01-20T11:55:54;99732.27;;;10.99;41.57
62592;BME280;48659;41.622;2.276;2023-01-20T11:58:25;99729.23;;;8.50;47.69
62592;BME280;48659;41.622;2.276;2023-01-20T12:00:59;99729.05;;;8.51;49.13
62592;BME280;48659;41.622;2.276;2023-01-20T12:03:45;99721.45;;;10.14;45.99
62592;BME280;48659;41.622;2.276;2023-01-20T12:06:19;99720.60;;;10.11;43.17
62592;BME280;48659;41.622;2.276;2023-01-20T12:08:51;99726.55;;;11.12;39.23
62592;BME280;48659;41.622;2.276;2023-01-20T12:11:36;99728.11;;;11.45;35.38
62592;BME280;48659;41.622;2.276;2023-01-20T12:14:18;99720.89;;;12.03;33.52
62592;BME280;48659;41.622;2.276;2023-01-20T12:16:51;99708.71;;;12.73;31.61
62592;BME280;48659;41.622;2.276;2023-01-20T12:19:24;99709.52;;;12.19;31.75
62592;BME280;48659;41.622;2.276;2023-01-20T12:21:55;99706.03;;;12.67;30.71
62592;BME280;48659;41.622;2.276;2023-01-20T12:24:29;99706.86;;;11.29;32.51
62592;BME280;48659;41.622;2.276;2023-01-20T12:26:59;99708.01;;;12.29;32.25
62592;BME280;48659;41.622;2.276;2023-01-20T12:29:37;99704.86;;;11.01;33.63
62592;BME280;48659;41.622;2.276;2023-01-20T12:32:08;99704.30;;;11.90;34.02
62592;BME280;48659;41.622;2.276;2023-01-20T12:34:37;99704.79;;;12.00;34.00
62592;BME280;48659;41.622;2.276;2023-01-20T12:37:11;99699.66;;;11.72;33.39
62592;BME280;48659;41.622;2.276;2023-01-20T12:39:56;99703.57;;;10.10;35.18
62592;BME280;48659;41.622;2.276;2023-01-20T12:44:57;99696.24;;;13.07;36.57
62592;BME280;48659;41.622;2.276;2023-01-20T12:47:41;99703.37;;;13.57;37.11
62592;BME280;48659;41.622;2.276;2023-01-20T12:50:26;99692.83;;;13.44;35.15
62592;BME280;48659;41.622;2.276;2023-01-20T12:53:14;99695.33;;;10.74;40.18
62592;BME280;48659;41.622;2.276;2023-01-20T12:55:51;99705.42;;;10.89;41.29
62592;BME280;48659;41.622;2.276;2023-01-20T12:58:32;99706.74;;;10.32;41.94
62592;BME280;48659;41.622;2.276;2023-01-20T13:01:25;99707.21;;;9.41;43.59
62592;BME280;48659;41.622;2.276;2023-01-20T13:04:16;99708.89;;;8.71;45.62
62592;BME280;48659;41.622;2.276;2023-01-20T13:07:01;99707.18;;;8.83;45.33
62592;BME280;48659;41.622;2.276;2023-01-20T13:09:49;99709.30;;;8.76;46.41
62592;BME280;48659;41.622;2.276;2023-01-20T13:12:39;99711.27;;;8.87;46.49
62592;BME280;48659;41.622;2.276;2023-01-20T13:15:17;99707.44;;;8.02;48.36
62592;BME280;48659;41.622;2.276;2023-01-20T13:17:53;99708.19;;;8.77;47.40
62592;BME280;48659;41.622;2.276;2023-01-20T13:20:37;99707.34;;;8.20;46.95
62592;BME280;48659;41.622;2.276;2023-01-20T13:23:08;99703.44;;;9.68;44.19
62592;BME280;48659;41.622;2.276;2023-01-20T13:25:38;99705.85;;;8.58;46.27
62592;BME280;48659;41.622;2.276;2023-01-20T13:28:14;99715.04;;;8.52;46.60
62592;BME280;48659;41.622;2.276;2023-01-20T13:30:44;99717.40;;;8.55;45.82
62592;BME280;48659;41.622;2.276;2023-01-20T13:33:16;99717.81;;;9.76;43.48
62592;BME280;48659;41.622;2.276;2023-01-20T13:35:46;99717.15;;;9.34;44.44
62592;BME280;48659;41.622;2.276;2023-01-20T13:38:19;99716.96;;;10.21;42.15